sensor_id;sensor_type;location;lat;lon;timestamp;P1;durP1;ratioP1;P2;durP2;ratioP2
61038;SDS011;46919;45.816;3.104;2023-03-30T00:01:46;15.07;;;2.78;;
61038;SDS011;46919;45.816;3.104;2023-03-30T00:04:12;12.10;;;2.72;;
61038;SDS011;46919;45.816;3.104;2023-03-30T00:06:37;11.63;;;3.05;;
61038;SDS011;46919;45.816;3.104;2023-03-30T00:09:03;17.42;;;3.40;;
61038;SDS011;46919;45.816;3.104;2023-03-30T00:11:30;12.30;;;2.72;;
61038;SDS011;46919;45.816;3.104;2023-03-30T00:13:58;12.35;;;2.75;;
61038;SDS011;46919;45.816;3.104;2023-03-30T00:16:24;11.35;;;2.83;;
61038;SDS011;46919;45.816;3.104;2023-03-30T00:18:49;14.60;;;2.67;;
61038;SDS011;46919;45.816;3.104;2023-03-30T00:21:14;17.00;;;3.80;;
61038;SDS011;46919;45.816;3.104;2023-03-30T00:23:44;13.13;;;3.67;;
61038;SDS011;46919;45.816;3.104;2023-03-30T00:26:13;9.85;;;3.15;;
61038;SDS011;46919;45.816;3.104;2023-03-30T00:28:39;20.38;;;3.13;;
61038;SDS011;46919;45.816;3.104;2023-03-30T00:31:04;18.15;;;3.22;;
61038;SDS011;46919;45.816;3.104;2023-03-30T00:33:30;16.48;;;3.35;;
61038;SDS011;46919;45.816;3.104;2023-03-30T00:35:56;18.75;;;3.20;;
61038;SDS011;46919;45.816;3.104;2023-03-30T00:38:22;16.77;;;3.50;;
61038;SDS011;46919;45.816;3.104;2023-03-30T00:40:53;16.38;;;2.88;;
61038;SDS011;46919;45.816;3.104;2023-03-30T00:43:20;10.85;;;2.75;;
61038;SDS011;46919;45.816;3.104;2023-03-30T00:45:46;17.90;;;2.92;;
61038;SDS011;46919;45.816;3.104;2023-03-30T00:48:33;15.38;;;3.10;;
61038;SDS011;46919;45.816;3.104;2023-03-30T00:51:01;17.10;;;3.30;;
61038;SDS011;46919;45.816;3.104;2023-03-30T00:53:35;11.07;;;2.83;;
61038;SDS011;46919;45.816;3.104;2023-03-30T00:56:05;19.08;;;3.50;;
61038;SDS011;46919;45.816;3.104;2023-03-30T00:58:32;13.73;;;3.15;;
61038;SDS011;46919;45.816;3.104;2023-03-30T01:01:00;19.30;;;2.97;;
61038;SDS011;46919;45.816;3.104;2023-03-30T01:03:31;15.63;;;2.92;;
61038;SDS011;46919;45.816;3.104;2023-03-30T01:05:59;11.27;;;2.75;;
61038;SDS011;46919;45.816;3.104;2023-03-30T01:08:27;12.63;;;2.88;;
61038;SDS011;46919;45.816;3.104;2023-03-30T01:10:56;18.40;;;3.17;;
61038;SDS011;46919;45.816;3.104;2023-03-30T01:13:25;17.70;;;2.90;;
61038;SDS011;46919;45.816;3.104;2023-03-30T01:18:28;17.05;;;3.00;;
61038;SDS011;46919;45.816;3.104;2023-03-30T01:43:55;13.10;;;2.95;;
61038;SDS011;46919;45.816;3.104;2023-03-30T01:46:46;13.63;;;2.95;;
61038;SDS011;46919;45.816;3.104;2023-03-30T01:49:22;16.17;;;3.20;;
61038;SDS011;46919;45.816;3.104;2023-03-30T01:52:00;17.48;;;3.22;;
61038;SDS011;46919;45.816;3.104;2023-03-30T01:54:31;16.90;;;3.33;;
61038;SDS011;46919;45.816;3.104;2023-03-30T02:00:02;20.52;;;3.33;;
61038;SDS011;46919;45.816;3.104;2023-03-30T02:02:37;15.20;;;3.20;;
61038;SDS011;46919;45.816;3.104;2023-03-30T02:05:07;16.90;;;3.08;;
61038;SDS011;46919;45.816;3.104;2023-03-30T02:07:34;15.30;;;2.80;;
61038;SDS011;46919;45.816;3.104;2023-03-30T02:10:04;18.65;;;3.08;;
61038;SDS011;46919;45.816;3.104;2023-03-30T02:12:33;14.05;;;3.13;;
61038;SDS011;46919;45.816;3.104;2023-03-30T02:15:01;12.65;;;2.85;;
61038;SDS011;46919;45.816;3.104;2023-03-30T02:17:31;20.77;;;3.53;;
61038;SDS011;46919;45.816;3.104;2023-03-30T02:19:58;16.30;;;3.35;;
61038;SDS011;46919;45.816;3.104;2023-03-30T02:22:24;12.98;;;3.10;;
61038;SDS011;46919;45.816;3.104;2023-03-30T02:24:54;18.10;;;3.50;;
61038;SDS011;46919;45.816;3.104;2023-03-30T02:27:22;14.07;;;2.25;;
61038;SDS011;46919;45.816;3.104;2023-03-30T02:29:49;12.75;;;2.88;;
61038;SDS011;46919;45.816;3.104;2023-03-30T02:32:19;18.08;;;3.10;;
61038;SDS011;46919;45.816;3.104;2023-03-30T02:37:59;14.75;;;2.90;;
61038;SDS011;46919;45.816;3.104;2023-03-30T02:40:45;18.45;;;3.38;;
61038;SDS011;46919;45.816;3.104;2023-03-30T02:43:29;12.02;;;3.10;;
61038;SDS011;46919;45.816;3.104;2023-03-30T02:48:55;13.65;;;2.60;;
61038;SDS011;46919;45.816;3.104;2023-03-30T02:51:25;18.55;;;3.08;;
61038;SDS011;46919;45.816;3.104;2023-03-30T02:56:40;14.48;;;2.30;;
61038;SDS011;46919;45.816;3.104;2023-03-30T02:59:20;18.55;;;3.00;;
61038;SDS011;46919;45.816;3.104;2023-03-30T03:01:55;17.38;;;2.58;;
61038;SDS011;46919;45.816;3.104;2023-03-30T03:04:24;17.25;;;2.70;;
61038;SDS011;46919;45.816;3.104;2023-03-30T03:06:52;20.05;;;3.13;;
61038;SDS011;46919;45.816;3.104;2023-03-30T03:09:19;15.48;;;2.97;;
61038;SDS011;46919;45.816;3.104;2023-03-30T03:11:49;18.70;;;2.85;;
61038;SDS011;46919;45.816;3.104;2023-03-30T03:14:15;15.25;;;3.03;;
61038;SDS011;46919;45.816;3.104;2023-03-30T03:16:41;16.88;;;2.67;;
61038;SDS011;46919;45.816;3.104;2023-03-30T03:19:06;15.35;;;2.60;;
61038;SDS011;46919;45.816;3.104;2023-03-30T03:21:32;16.67;;;2.67;;
61038;SDS011;46919;45.816;3.104;2023-03-30T03:23:58;12.60;;;2.65;;
61038;SDS011;46919;45.816;3.104;2023-03-30T03:26:23;15.00;;;2.97;;
61038;SDS011;46919;45.816;3.104;2023-03-30T03:28:49;17.33;;;2.45;;
61038;SDS011;46919;45.816;3.104;2023-03-30T03:31:14;12.60;;;2.90;;
61038;SDS011;46919;45.816;3.104;2023-03-30T03:33:40;13.77;;;2.70;;
61038;SDS011;46919;45.816;3.104;2023-03-30T03:36:05;12.75;;;2.53;;
61038;SDS011;46919;45.816;3.104;2023-03-30T03:38:31;12.63;;;2.20;;
61038;SDS011;46919;45.816;3.104;2023-03-30T03:40:57;14.13;;;2.63;;
61038;SDS011;46919;45.816;3.104;2023-03-30T03:43:23;9.98;;;2.47;;
61038;SDS011;46919;45.816;3.104;2023-03-30T03:45:49;17.30;;;2.67;;
61038;SDS011;46919;45.816;3.104;2023-03-30T03:48:15;13.75;;;2.70;;
61038;SDS011;46919;45.816;3.104;2023-03-30T03:50:43;11.43;;;2.50;;
61038;SDS011;46919;45.816;3.104;2023-03-30T03:53:09;17.35;;;2.60;;
61038;SDS011;46919;45.816;3.104;2023-03-30T03:55:37;13.00;;;2.65;;
61038;SDS011;46919;45.816;3.104;2023-03-30T03:58:03;10.70;;;2.53;;
61038;SDS011;46919;45.816;3.104;2023-03-30T04:00:29;10.73;;;2.83;;
61038;SDS011;46919;45.816;3.104;2023-03-30T04:02:55;11.07;;;2.70;;
61038;SDS011;46919;45.816;3.104;2023-03-30T04:05:22;15.32;;;3.38;;
61038;SDS011;46919;45.816;3.104;2023-03-30T04:07:48;9.55;;;2.45;;
61038;SDS011;46919;45.816;3.104;2023-03-30T04:10:13;15.88;;;2.15;;
61038;SDS011;46919;45.816;3.104;2023-03-30T04:12:39;13.23;;;2.25;;
61038;SDS011;46919;45.816;3.104;2023-03-30T04:15:05;8.90;;;2.00;;
61038;SDS011;46919;45.816;3.104;2023-03-30T04:17:31;7.97;;;1.73;;
61038;SDS011;46919;45.816;3.104;2023-03-30T04:20:01;7.05;;;2.30;;
61038;SDS011;46919;45.816;3.104;2023-03-30T04:22:34;6.97;;;2.10;;
61038;SDS011;46919;45.816;3.104;2023-03-30T04:25:00;10.45;;;2.25;;
61038;SDS011;46919;45.816;3.104;2023-03-30T04:27:28;9.18;;;2.60;;
61038;SDS011;46919;45.816;3.104;2023-03-30T04:29:54;6.68;;;1.70;;
61038;SDS011;46919;45.816;3.104;2023-03-30T04:32:23;8.13;;;1.88;;
61038;SDS011;46919;45.816;3.104;2023-03-30T04:34:49;7.82;;;1.92;;
61038;SDS011;46919;45.816;3.104;2023-03-30T04:37:19;7.90;;;2.45;;
61038;SDS011;46919;45.816;3.104;2023-03-30T04:39:47;7.90;;;2.00;;
61038;SDS011;46919;45.816;3.104;2023-03-30T04:42:14;7.55;;;1.90;;
61038;SDS011;46919;45.816;3.104;2023-03-30T04:44:43;7.10;;;2.05;;
61038;SDS011;46919;45.816;3.104;2023-03-30T04:47:09;8.48;;;2.15;;
61038;SDS011;46919;45.816;3.104;2023-03-30T04:49:35;8.80;;;2.45;;
61038;SDS011;46919;45.816;3.104;2023-03-30T04:52:00;9.55;;;1.92;;
61038;SDS011;46919;45.816;3.104;2023-03-30T04:54:25;5.57;;;2.03;;
61038;SDS011;46919;45.816;3.104;2023-03-30T04:56:51;7.72;;;2.30;;
61038;SDS011;46919;45.816;3.104;2023-03-30T04:59:16;9.38;;;1.90;;
61038;SDS011;46919;45.816;3.104;2023-03-30T05:01:42;6.60;;;2.03;;
61038;SDS011;46919;45.816;3.104;2023-03-30T05:04:07;8.20;;;2.40;;
61038;SDS011;46919;45.816;3.104;2023-03-30T05:06:33;11.48;;;2.30;;
61038;SDS011;46919;45.816;3.104;2023-03-30T05:08:58;9.80;;;2.47;;
61038;SDS011;46919;45.816;3.104;2023-03-30T05:11:24;8.88;;;2.05;;
61038;SDS011;46919;45.816;3.104;2023-03-30T05:13:50;8.95;;;2.33;;
61038;SDS011;46919;45.816;3.104;2023-03-30T05:16:16;10.60;;;2.25;;
61038;SDS011;46919;45.816;3.104;2023-03-30T05:18:42;9.00;;;2.15;;
61038;SDS011;46919;45.816;3.104;2023-03-30T05:21:08;10.43;;;2.42;;
61038;SDS011;46919;45.816;3.104;2023-03-30T05:23:33;8.50;;;2.13;;
61038;SDS011;46919;45.816;3.104;2023-03-30T05:26:00;7.88;;;2.08;;
61038;SDS011;46919;45.816;3.104;2023-03-30T05:28:27;15.40;;;2.65;;
61038;SDS011;46919;45.816;3.104;2023-03-30T05:30:53;9.27;;;2.45;;
61038;SDS011;46919;45.816;3.104;2023-03-30T05:33:19;12.25;;;2.22;;
61038;SDS011;46919;45.816;3.104;2023-03-30T05:35:46;11.57;;;2.20;;
61038;SDS011;46919;45.816;3.104;2023-03-30T05:38:11;10.30;;;2.10;;
61038;SDS011;46919;45.816;3.104;2023-03-30T05:40:36;9.82;;;2.42;;
61038;SDS011;46919;45.816;3.104;2023-03-30T05:43:02;12.50;;;2.47;;
61038;SDS011;46919;45.816;3.104;2023-03-30T05:45:28;9.55;;;2.67;;
61038;SDS011;46919;45.816;3.104;2023-03-30T05:47:53;16.38;;;2.95;;
61038;SDS011;46919;45.816;3.104;2023-03-30T05:50:19;13.45;;;3.03;;
61038;SDS011;46919;45.816;3.104;2023-03-30T05:52:46;14.60;;;2.80;;
61038;SDS011;46919;45.816;3.104;2023-03-30T05:55:11;11.60;;;2.60;;
61038;SDS011;46919;45.816;3.104;2023-03-30T05:57:37;16.05;;;2.53;;
61038;SDS011;46919;45.816;3.104;2023-03-30T06:00:03;13.18;;;2.75;;
61038;SDS011;46919;45.816;3.104;2023-03-30T06:02:34;12.73;;;2.53;;
61038;SDS011;46919;45.816;3.104;2023-03-30T06:04:59;7.20;;;2.15;;
61038;SDS011;46919;45.816;3.104;2023-03-30T06:07:26;17.88;;;2.40;;
61038;SDS011;46919;45.816;3.104;2023-03-30T06:09:52;8.57;;;2.38;;
61038;SDS011;46919;45.816;3.104;2023-03-30T06:12:17;8.52;;;2.70;;
61038;SDS011;46919;45.816;3.104;2023-03-30T06:14:42;12.10;;;2.55;;
61038;SDS011;46919;45.816;3.104;2023-03-30T06:17:08;9.70;;;2.50;;
61038;SDS011;46919;45.816;3.104;2023-03-30T06:19:36;10.75;;;2.55;;
61038;SDS011;46919;45.816;3.104;2023-03-30T06:22:03;7.20;;;2.30;;
61038;SDS011;46919;45.816;3.104;2023-03-30T06:24:28;10.70;;;3.10;;
61038;SDS011;46919;45.816;3.104;2023-03-30T06:26:54;10.13;;;2.33;;
61038;SDS011;46919;45.816;3.104;2023-03-30T06:29:20;13.02;;;3.03;;
61038;SDS011;46919;45.816;3.104;2023-03-30T06:31:45;9.23;;;3.08;;
61038;SDS011;46919;45.816;3.104;2023-03-30T06:34:11;15.25;;;2.70;;
61038;SDS011;46919;45.816;3.104;2023-03-30T06:36:37;10.90;;;3.47;;
61038;SDS011;46919;45.816;3.104;2023-03-30T06:39:02;11.45;;;2.72;;
61038;SDS011;46919;45.816;3.104;2023-03-30T06:41:29;15.10;;;2.90;;
61038;SDS011;46919;45.816;3.104;2023-03-30T06:43:55;12.68;;;2.88;;
61038;SDS011;46919;45.816;3.104;2023-03-30T06:46:20;13.63;;;2.75;;
61038;SDS011;46919;45.816;3.104;2023-03-30T06:48:46;11.00;;;2.60;;
61038;SDS011;46919;45.816;3.104;2023-03-30T06:51:11;10.05;;;2.58;;
61038;SDS011;46919;45.816;3.104;2023-03-30T06:53:38;12.23;;;2.17;;
61038;SDS011;46919;45.816;3.104;2023-03-30T06:56:04;7.28;;;2.00;;
61038;SDS011;46919;45.816;3.104;2023-03-30T06:58:31;10.50;;;2.75;;
61038;SDS011;46919;45.816;3.104;2023-03-30T07:00:58;10.70;;;2.28;;
61038;SDS011;46919;45.816;3.104;2023-03-30T07:03:23;10.30;;;1.90;;
61038;SDS011;46919;45.816;3.104;2023-03-30T07:05:50;9.23;;;2.00;;
61038;SDS011;46919;45.816;3.104;2023-03-30T07:08:16;6.57;;;2.00;;
61038;SDS011;46919;45.816;3.104;2023-03-30T07:10:43;7.50;;;1.73;;
61038;SDS011;46919;45.816;3.104;2023-03-30T07:13:10;5.55;;;2.10;;
61038;SDS011;46919;45.816;3.104;2023-03-30T07:15:35;8.68;;;1.65;;
61038;SDS011;46919;45.816;3.104;2023-03-30T07:18:01;6.95;;;2.00;;
61038;SDS011;46919;45.816;3.104;2023-03-30T07:20:27;8.10;;;1.70;;
61038;SDS011;46919;45.816;3.104;2023-03-30T07:22:52;6.45;;;1.70;;
61038;SDS011;46919;45.816;3.104;2023-03-30T07:25:18;10.52;;;1.88;;
61038;SDS011;46919;45.816;3.104;2023-03-30T07:27:43;6.18;;;1.80;;
61038;SDS011;46919;45.816;3.104;2023-03-30T07:30:09;12.38;;;2.10;;
61038;SDS011;46919;45.816;3.104;2023-03-30T07:32:35;9.90;;;2.13;;
61038;SDS011;46919;45.816;3.104;2023-03-30T07:35:01;8.25;;;2.20;;
61038;SDS011;46919;45.816;3.104;2023-03-30T07:37:27;7.88;;;2.10;;
61038;SDS011;46919;45.816;3.104;2023-03-30T07:39:53;7.15;;;2.22;;
61038;SDS011;46919;45.816;3.104;2023-03-30T07:42:20;8.98;;;2.95;;
61038;SDS011;46919;45.816;3.104;2023-03-30T07:44:46;9.60;;;2.63;;
61038;SDS011;46919;45.816;3.104;2023-03-30T07:47:12;11.52;;;2.22;;
61038;SDS011;46919;45.816;3.104;2023-03-30T07:49:37;7.72;;;2.00;;
61038;SDS011;46919;45.816;3.104;2023-03-30T07:52:03;13.30;;;2.70;;
61038;SDS011;46919;45.816;3.104;2023-03-30T07:54:29;10.05;;;2.25;;
61038;SDS011;46919;45.816;3.104;2023-03-30T07:56:54;9.38;;;1.67;;
61038;SDS011;46919;45.816;3.104;2023-03-30T07:59:20;8.30;;;2.30;;
61038;SDS011;46919;45.816;3.104;2023-03-30T08:01:47;9.73;;;2.47;;
61038;SDS011;46919;45.816;3.104;2023-03-30T08:04:18;7.25;;;2.05;;
61038;SDS011;46919;45.816;3.104;2023-03-30T08:06:44;8.50;;;2.30;;
61038;SDS011;46919;45.816;3.104;2023-03-30T08:09:11;7.18;;;1.83;;
61038;SDS011;46919;45.816;3.104;2023-03-30T08:11:37;8.88;;;1.58;;
61038;SDS011;46919;45.816;3.104;2023-03-30T08:14:02;9.77;;;1.50;;
61038;SDS011;46919;45.816;3.104;2023-03-30T08:16:28;5.78;;;1.20;;
61038;SDS011;46919;45.816;3.104;2023-03-30T08:18:54;9.13;;;1.92;;
61038;SDS011;46919;45.816;3.104;2023-03-30T08:21:20;10.10;;;1.80;;
61038;SDS011;46919;45.816;3.104;2023-03-30T08:23:49;7.15;;;1.80;;
61038;SDS011;46919;45.816;3.104;2023-03-30T08:26:15;5.97;;;1.40;;
61038;SDS011;46919;45.816;3.104;2023-03-30T08:28:40;4.68;;;1.38;;
61038;SDS011;46919;45.816;3.104;2023-03-30T08:31:06;6.18;;;1.23;;
61038;SDS011;46919;45.816;3.104;2023-03-30T08:33:34;20.70;;;11.48;;
61038;SDS011;46919;45.816;3.104;2023-03-30T08:36:00;8.30;;;2.15;;
61038;SDS011;46919;45.816;3.104;2023-03-30T08:38:26;8.18;;;1.73;;
61038;SDS011;46919;45.816;3.104;2023-03-30T08:40:51;8.15;;;1.50;;
61038;SDS011;46919;45.816;3.104;2023-03-30T08:45:50;8.60;;;1.98;;
61038;SDS011;46919;45.816;3.104;2023-03-30T08:48:26;8.23;;;1.65;;
61038;SDS011;46919;45.816;3.104;2023-03-30T08:53:32;10.00;;;2.10;;
61038;SDS011;46919;45.816;3.104;2023-03-30T09:01:22;6.97;;;1.30;;
61038;SDS011;46919;45.816;3.104;2023-03-30T09:09:20;4.97;;;1.35;;
61038;SDS011;46919;45.816;3.104;2023-03-30T09:11:48;7.32;;;1.92;;
61038;SDS011;46919;45.816;3.104;2023-03-30T09:14:26;6.18;;;1.35;;
61038;SDS011;46919;45.816;3.104;2023-03-30T09:17:01;4.90;;;1.10;;
61038;SDS011;46919;45.816;3.104;2023-03-30T09:20:19;6.57;;;1.40;;
61038;SDS011;46919;45.816;3.104;2023-03-30T09:22:32;5.25;;;1.25;;
61038;SDS011;46919;45.816;3.104;2023-03-30T09:25:05;3.45;;;1.30;;
61038;SDS011;46919;45.816;3.104;2023-03-30T09:27:59;8.73;;;1.77;;
61038;SDS011;46919;45.816;3.104;2023-03-30T09:30:27;5.55;;;1.27;;
61038;SDS011;46919;45.816;3.104;2023-03-30T09:32:59;4.53;;;1.00;;
61038;SDS011;46919;45.816;3.104;2023-03-30T09:35:36;6.78;;;1.33;;
61038;SDS011;46919;45.816;3.104;2023-03-30T09:38:10;5.30;;;1.17;;
61038;SDS011;46919;45.816;3.104;2023-03-30T09:43:32;3.35;;;0.85;;
61038;SDS011;46919;45.816;3.104;2023-03-30T09:46:11;5.05;;;1.25;;
61038;SDS011;46919;45.816;3.104;2023-03-30T09:48:41;3.35;;;1.20;;
61038;SDS011;46919;45.816;3.104;2023-03-30T09:51:16;5.28;;;1.40;;
61038;SDS011;46919;45.816;3.104;2023-03-30T09:53:46;6.72;;;1.80;;
61038;SDS011;46919;45.816;3.104;2023-03-30T09:56:19;6.72;;;1.52;;
61038;SDS011;46919;45.816;3.104;2023-03-30T09:59:18;6.43;;;1.55;;
61038;SDS011;46919;45.816;3.104;2023-03-30T10:04:10;5.78;;;1.50;;
61038;SDS011;46919;45.816;3.104;2023-03-30T10:06:46;7.32;;;1.58;;
61038;SDS011;46919;45.816;3.104;2023-03-30T10:09:13;7.00;;;1.52;;
61038;SDS011;46919;45.816;3.104;2023-03-30T10:11:45;5.30;;;1.67;;
61038;SDS011;46919;45.816;3.104;2023-03-30T10:14:28;5.35;;;1.80;;
61038;SDS011;46919;45.816;3.104;2023-03-30T10:17:01;5.63;;;1.70;;
61038;SDS011;46919;45.816;3.104;2023-03-30T10:19:28;7.47;;;2.00;;
61038;SDS011;46919;45.816;3.104;2023-03-30T10:21:55;7.13;;;1.98;;
61038;SDS011;46919;45.816;3.104;2023-03-30T10:24:29;5.22;;;1.70;;
61038;SDS011;46919;45.816;3.104;2023-03-30T10:26:57;7.30;;;2.17;;
61038;SDS011;46919;45.816;3.104;2023-03-30T10:29:30;7.10;;;2.15;;
61038;SDS011;46919;45.816;3.104;2023-03-30T10:32:00;6.50;;;1.92;;
61038;SDS011;46919;45.816;3.104;2023-03-30T10:34:34;4.43;;;1.55;;
61038;SDS011;46919;45.816;3.104;2023-03-30T10:37:16;4.38;;;2.00;;
61038;SDS011;46919;45.816;3.104;2023-03-30T10:39:50;4.63;;;1.80;;
61038;SDS011;46919;45.816;3.104;2023-03-30T10:42:18;5.57;;;2.08;;
61038;SDS011;46919;45.816;3.104;2023-03-30T10:44:54;4.57;;;1.52;;
61038;SDS011;46919;45.816;3.104;2023-03-30T10:56:08;5.13;;;1.40;;
61038;SDS011;46919;45.816;3.104;2023-03-30T11:03:35;8.32;;;1.77;;
61038;SDS011;46919;45.816;3.104;2023-03-30T11:06:21;5.22;;;1.60;;
61038;SDS011;46919;45.816;3.104;2023-03-30T11:08:50;6.53;;;1.50;;
61038;SDS011;46919;45.816;3.104;2023-03-30T11:11:25;6.28;;;1.90;;
61038;SDS011;46919;45.816;3.104;2023-03-30T11:13:58;7.43;;;1.55;;
61038;SDS011;46919;45.816;3.104;2023-03-30T11:17:09;4.43;;;1.60;;
61038;SDS011;46919;45.816;3.104;2023-03-30T11:19:21;4.05;;;1.83;;
61038;SDS011;46919;45.816;3.104;2023-03-30T11:21:54;4.45;;;1.60;;
61038;SDS011;46919;45.816;3.104;2023-03-30T11:24:25;4.70;;;2.10;;
61038;SDS011;46919;45.816;3.104;2023-03-30T11:27:05;7.78;;;2.08;;
61038;SDS011;46919;45.816;3.104;2023-03-30T11:32:29;6.45;;;2.33;;
61038;SDS011;46919;45.816;3.104;2023-03-30T11:40:33;6.93;;;2.50;;
61038;SDS011;46919;45.816;3.104;2023-03-30T11:43:10;7.38;;;2.55;;
61038;SDS011;46919;45.816;3.104;2023-03-30T11:51:17;12.95;;;3.05;;
61038;SDS011;46919;45.816;3.104;2023-03-30T11:56:49;7.90;;;2.55;;
61038;SDS011;46919;45.816;3.104;2023-03-30T12:05:02;6.65;;;2.90;;
61038;SDS011;46919;45.816;3.104;2023-03-30T12:07:59;10.70;;;3.00;;
61038;SDS011;46919;45.816;3.104;2023-03-30T12:10:33;8.35;;;3.00;;
61038;SDS011;46919;45.816;3.104;2023-03-30T12:13:04;10.23;;;3.20;;
61038;SDS011;46919;45.816;3.104;2023-03-30T12:15:56;7.50;;;3.35;;
61038;SDS011;46919;45.816;3.104;2023-03-30T12:18:51;11.38;;;3.65;;
61038;SDS011;46919;45.816;3.104;2023-03-30T12:21:44;8.75;;;3.20;;
61038;SDS011;46919;45.816;3.104;2023-03-30T12:24:48;9.10;;;3.33;;
61038;SDS011;46919;45.816;3.104;2023-03-30T12:27:22;8.85;;;3.33;;
61038;SDS011;46919;45.816;3.104;2023-03-30T12:29:48;7.75;;;3.53;;
61038;SDS011;46919;45.816;3.104;2023-03-30T12:34:44;6.95;;;3.53;;
61038;SDS011;46919;45.816;3.104;2023-03-30T12:39:59;9.20;;;3.67;;
61038;SDS011;46919;45.816;3.104;2023-03-30T12:42:33;9.98;;;3.30;;
61038;SDS011;46919;45.816;3.104;2023-03-30T12:45:22;7.05;;;2.90;;
61038;SDS011;46919;45.816;3.104;2023-03-30T12:56:13;9.25;;;3.63;;
61038;SDS011;46919;45.816;3.104;2023-03-30T13:04:26;8.00;;;3.38;;
61038;SDS011;46919;45.816;3.104;2023-03-30T13:06:58;9.93;;;3.80;;
61038;SDS011;46919;45.816;3.104;2023-03-30T13:09:32;10.18;;;4.30;;
61038;SDS011;46919;45.816;3.104;2023-03-30T13:19:21;7.03;;;3.35;;
61038;SDS011;46919;45.816;3.104;2023-03-30T13:24:54;8.95;;;3.40;;
61038;SDS011;46919;45.816;3.104;2023-03-30T13:27:25;10.27;;;3.80;;
61038;SDS011;46919;45.816;3.104;2023-03-30T13:30:01;8.73;;;3.50;;
61038;SDS011;46919;45.816;3.104;2023-03-30T13:45:34;9.85;;;3.70;;
61038;SDS011;46919;45.816;3.104;2023-03-30T13:48:19;11.38;;;4.07;;
61038;SDS011;46919;45.816;3.104;2023-03-30T13:50:58;9.32;;;3.90;;
61038;SDS011;46919;45.816;3.104;2023-03-30T13:53:27;9.82;;;3.47;;
61038;SDS011;46919;45.816;3.104;2023-03-30T13:55:59;11.10;;;3.72;;
61038;SDS011;46919;45.816;3.104;2023-03-30T13:58:30;10.55;;;3.83;;
61038;SDS011;46919;45.816;3.104;2023-03-30T14:00:59;8.38;;;3.33;;
61038;SDS011;46919;45.816;3.104;2023-03-30T14:08:43;9.32;;;4.40;;
61038;SDS011;46919;45.816;3.104;2023-03-30T14:16:57;11.90;;;4.63;;
61038;SDS011;46919;45.816;3.104;2023-03-30T14:19:25;9.18;;;4.45;;
61038;SDS011;46919;45.816;3.104;2023-03-30T14:22:11;10.02;;;4.18;;
61038;SDS011;46919;45.816;3.104;2023-03-30T14:24:55;10.88;;;4.80;;
61038;SDS011;46919;45.816;3.104;2023-03-30T14:27:22;12.25;;;4.18;;
61038;SDS011;46919;45.816;3.104;2023-03-30T14:29:49;11.43;;;4.70;;
61038;SDS011;46919;45.816;3.104;2023-03-30T14:32:16;8.95;;;4.40;;
61038;SDS011;46919;45.816;3.104;2023-03-30T14:34:45;9.15;;;4.40;;
61038;SDS011;46919;45.816;3.104;2023-03-30T14:37:12;12.85;;;4.82;;
61038;SDS011;46919;45.816;3.104;2023-03-30T14:39:39;8.65;;;4.28;;
61038;SDS011;46919;45.816;3.104;2023-03-30T14:42:14;10.43;;;4.28;;
61038;SDS011;46919;45.816;3.104;2023-03-30T14:44:42;8.13;;;4.50;;
61038;SDS011;46919;45.816;3.104;2023-03-30T14:47:10;7.40;;;3.95;;
61038;SDS011;46919;45.816;3.104;2023-03-30T14:49:36;14.18;;;4.50;;
61038;SDS011;46919;45.816;3.104;2023-03-30T14:52:07;13.55;;;4.30;;
61038;SDS011;46919;45.816;3.104;2023-03-30T14:54:38;11.15;;;3.80;;
61038;SDS011;46919;45.816;3.104;2023-03-30T14:57:05;11.65;;;4.75;;
61038;SDS011;46919;45.816;3.104;2023-03-30T14:59:32;9.93;;;4.50;;
61038;SDS011;46919;45.816;3.104;2023-03-30T15:02:02;11.23;;;4.60;;
61038;SDS011;46919;45.816;3.104;2023-03-30T15:04:32;12.43;;;4.57;;
61038;SDS011;46919;45.816;3.104;2023-03-30T15:07:00;10.60;;;4.38;;
61038;SDS011;46919;45.816;3.104;2023-03-30T15:09:26;11.23;;;4.40;;
61038;SDS011;46919;45.816;3.104;2023-03-30T15:14:22;9.50;;;4.22;;
61038;SDS011;46919;45.816;3.104;2023-03-30T15:16:48;9.13;;;3.85;;
61038;SDS011;46919;45.816;3.104;2023-03-30T15:19:30;8.60;;;4.30;;
61038;SDS011;46919;45.816;3.104;2023-03-30T15:22:02;8.30;;;4.28;;
61038;SDS011;46919;45.816;3.104;2023-03-30T15:24:34;12.77;;;4.47;;
61038;SDS011;46919;45.816;3.104;2023-03-30T15:27:02;10.68;;;3.92;;
61038;SDS011;46919;45.816;3.104;2023-03-30T15:29:31;9.32;;;4.07;;
61038;SDS011;46919;45.816;3.104;2023-03-30T15:31:58;12.70;;;4.32;;
61038;SDS011;46919;45.816;3.104;2023-03-30T15:37:32;11.30;;;4.43;;
61038;SDS011;46919;45.816;3.104;2023-03-30T15:39:59;9.82;;;4.05;;
61038;SDS011;46919;45.816;3.104;2023-03-30T15:42:28;9.30;;;3.70;;
61038;SDS011;46919;45.816;3.104;2023-03-30T15:45:00;9.93;;;4.00;;
61038;SDS011;46919;45.816;3.104;2023-03-30T15:47:27;12.57;;;4.20;;
61038;SDS011;46919;45.816;3.104;2023-03-30T15:49:53;9.10;;;4.13;;
61038;SDS011;46919;45.816;3.104;2023-03-30T15:52:31;10.10;;;4.15;;
61038;SDS011;46919;45.816;3.104;2023-03-30T15:55:02;10.00;;;4.82;;
61038;SDS011;46919;45.816;3.104;2023-03-30T15:57:32;8.55;;;3.97;;
61038;SDS011;46919;45.816;3.104;2023-03-30T16:00:02;11.15;;;3.90;;
61038;SDS011;46919;45.816;3.104;2023-03-30T16:05:02;9.73;;;3.38;;
61038;SDS011;46919;45.816;3.104;2023-03-30T16:07:30;11.05;;;4.05;;
61038;SDS011;46919;45.816;3.104;2023-03-30T16:09:56;10.77;;;4.22;;
61038;SDS011;46919;45.816;3.104;2023-03-30T16:12:22;10.40;;;3.95;;
61038;SDS011;46919;45.816;3.104;2023-03-30T16:14:50;9.77;;;3.88;;
61038;SDS011;46919;45.816;3.104;2023-03-30T16:17:17;10.68;;;4.07;;
61038;SDS011;46919;45.816;3.104;2023-03-30T16:19:43;12.88;;;4.57;;
61038;SDS011;46919;45.816;3.104;2023-03-30T16:22:09;9.70;;;4.07;;
61038;SDS011;46919;45.816;3.104;2023-03-30T16:24:36;10.52;;;3.80;;
61038;SDS011;46919;45.816;3.104;2023-03-30T16:27:05;7.13;;;3.80;;
61038;SDS011;46919;45.816;3.104;2023-03-30T16:29:31;9.45;;;3.80;;
61038;SDS011;46919;45.816;3.104;2023-03-30T16:31:57;8.55;;;4.00;;
61038;SDS011;46919;45.816;3.104;2023-03-30T16:34:22;11.20;;;3.75;;
61038;SDS011;46919;45.816;3.104;2023-03-30T16:36:48;13.90;;;4.13;;
61038;SDS011;46919;45.816;3.104;2023-03-30T16:39:15;11.75;;;3.83;;
61038;SDS011;46919;45.816;3.104;2023-03-30T16:41:44;9.85;;;4.00;;
61038;SDS011;46919;45.816;3.104;2023-03-30T16:44:10;9.80;;;4.25;;
61038;SDS011;46919;45.816;3.104;2023-03-30T16:46:36;12.45;;;4.22;;
61038;SDS011;46919;45.816;3.104;2023-03-30T16:49:01;6.75;;;3.90;;
61038;SDS011;46919;45.816;3.104;2023-03-30T16:51:27;9.90;;;4.28;;
61038;SDS011;46919;45.816;3.104;2023-03-30T16:53:53;11.52;;;4.65;;
61038;SDS011;46919;45.816;3.104;2023-03-30T16:56:19;11.75;;;4.47;;
61038;SDS011;46919;45.816;3.104;2023-03-30T16:58:44;11.82;;;4.22;;
61038;SDS011;46919;45.816;3.104;2023-03-30T17:01:11;8.05;;;3.60;;
61038;SDS011;46919;45.816;3.104;2023-03-30T17:03:38;11.68;;;3.95;;
61038;SDS011;46919;45.816;3.104;2023-03-30T17:06:04;10.77;;;3.92;;
61038;SDS011;46919;45.816;3.104;2023-03-30T17:08:30;10.80;;;3.33;;
61038;SDS011;46919;45.816;3.104;2023-03-30T17:10:56;10.52;;;3.95;;
61038;SDS011;46919;45.816;3.104;2023-03-30T17:15:54;9.55;;;3.50;;
61038;SDS011;46919;45.816;3.104;2023-03-30T17:18:22;10.93;;;3.40;;
61038;SDS011;46919;45.816;3.104;2023-03-30T17:20:50;10.40;;;3.58;;
61038;SDS011;46919;45.816;3.104;2023-03-30T17:23:20;10.32;;;3.83;;
61038;SDS011;46919;45.816;3.104;2023-03-30T17:25:47;9.32;;;3.67;;
61038;SDS011;46919;45.816;3.104;2023-03-30T17:28:25;8.82;;;3.20;;
61038;SDS011;46919;45.816;3.104;2023-03-30T17:30:53;12.55;;;3.70;;
61038;SDS011;46919;45.816;3.104;2023-03-30T17:33:21;10.20;;;3.72;;